createdAt,value
2019-06-10T00:00:18.314Z,54.63
2019-06-10T00:02:45.174Z,54.66
2019-06-10T00:05:12.004Z,54.67
2019-06-10T00:07:40.950Z,54.61
2019-06-10T00:10:07.547Z,54.64
2019-06-10T00:12:34.483Z,54.69
2019-06-10T00:15:02.920Z,54.70
2019-06-10T00:17:31.407Z,54.62
2019-06-10T00:19:59.193Z,54.75
2019-06-10T00:22:27.003Z,54.67
2019-06-10T00:24:53.833Z,54.79
2019-06-10T00:27:21.570Z,54.83
2019-06-10T00:29:48.517Z,54.81
2019-06-10T00:32:15.306Z,54.82
2019-06-10T00:34:42.148Z,54.81
2019-06-10T00:37:12.006Z,54.71
2019-06-10T00:39:37.536Z,54.75
2019-06-10T00:42:07.550Z,54.74
2019-06-10T00:44:32.931Z,54.71
2019-06-10T00:47:00.713Z,54.69
2019-06-10T00:49:28.275Z,54.65
2019-06-10T00:51:55.095Z,54.87
2019-06-10T00:54:22.107Z,54.79
2019-06-10T00:56:51.492Z,54.74
2019-06-10T00:59:17.842Z,54.83
2019-06-10T01:01:44.712Z,54.87
2019-06-10T01:04:15.935Z,54.87
2019-06-10T01:06:42.319Z,54.64
2019-06-10T01:09:09.444Z,54.74
2019-06-10T01:11:37.455Z,54.70
2019-06-10T01:14:05.190Z,54.89
2019-06-10T01:16:32.190Z,54.91
2019-06-10T01:19:01.287Z,54.75
2019-06-10T01:21:27.563Z,54.77
2019-06-10T01:23:54.426Z,54.80
2019-06-10T01:26:21.662Z,54.89
2019-06-10T01:28:48.591Z,54.88
2019-06-10T01:31:19.160Z,54.83
2019-06-10T01:33:44.028Z,54.89
2019-06-10T01:36:13.400Z,54.83
2019-06-10T01:38:40.942Z,54.61
2019-06-10T01:41:08.738Z,54.81
2019-06-10T01:43:36.557Z,54.90
2019-06-10T01:46:03.371Z,54.90
2019-06-10T01:48:43.212Z,54.90
2019-06-10T01:50:58.708Z,54.87
2019-06-10T01:53:25.509Z,54.85
2019-06-10T01:55:52.340Z,54.82
2019-06-10T01:58:23.284Z,54.75
2019-06-10T02:00:50.758Z,54.81
2019-06-10T02:03:18.930Z,54.80
2019-06-10T02:05:46.256Z,54.89
2019-06-10T02:08:14.579Z,54.82
2019-06-10T02:10:41.697Z,54.85
2019-06-10T02:13:12.120Z,54.79
2019-06-10T02:15:40.942Z,54.82
2019-06-10T02:18:07.229Z,54.83
2019-06-10T02:20:34.063Z,54.80
2019-06-10T02:23:02.026Z,54.79
2019-06-10T02:25:30.491Z,55.04
2019-06-10T02:27:57.424Z,54.94
2019-06-10T02:30:39.352Z,55.04
2019-06-10T02:32:52.745Z,54.90
2019-06-10T02:35:30.486Z,54.92
2019-06-10T02:37:48.103Z,54.94
2019-06-10T02:40:20.587Z,54.92
2019-06-10T02:42:45.053Z,54.88
2019-06-10T02:45:17.343Z,54.98
2019-06-10T02:47:40.339Z,54.91
2019-06-10T02:50:08.829Z,54.86
2019-06-10T02:52:38.514Z,54.86
2019-06-10T02:55:04.644Z,54.88
2019-06-10T02:57:39.018Z,54.86
2019-06-10T03:00:04.228Z,54.78
2019-06-10T03:02:32.005Z,54.85
2019-06-10T03:04:57.176Z,54.63
2019-06-10T03:07:28.333Z,54.68
2019-06-10T03:09:53.694Z,54.70
2019-06-10T03:12:24.273Z,54.77
2019-06-10T03:14:49.447Z,54.69
2019-06-10T03:17:17.898Z,54.71
2019-06-10T03:19:50.396Z,54.80
2019-06-10T03:22:13.196Z,54.62
2019-06-10T03:24:42.056Z,54.79
2019-06-10T03:27:08.464Z,54.83
2019-06-10T03:29:35.233Z,54.70
2019-06-10T03:32:04.973Z,54.78
2019-06-10T03:34:40.204Z,54.73
2019-06-10T03:36:59.059Z,54.87
2019-06-10T03:39:28.401Z,54.94
2019-06-10T03:41:54.345Z,54.95
2019-06-10T03:44:23.550Z,54.92
2019-06-10T03:46:49.674Z,54.84
2019-06-10T03:49:17.129Z,54.84
2019-06-10T03:51:44.116Z,54.83
2019-06-10T03:54:13.011Z,54.83
2019-06-10T03:56:39.412Z,54.87
2019-06-10T03:59:06.172Z,54.69
2019-06-10T04:01:33.449Z,54.67
2019-06-10T04:04:02.351Z,54.76
2019-06-10T04:06:29.714Z,54.87
2019-06-10T04:08:56.476Z,54.80
2019-06-10T04:11:25.555Z,54.78
2019-06-10T04:13:53.511Z,54.80
2019-06-10T04:16:22.617Z,54.82
2019-06-10T04:18:48.802Z,54.91
2019-06-10T04:21:15.577Z,54.89
2019-06-10T04:23:42.635Z,54.78
2019-06-10T04:26:09.448Z,54.87
2019-06-10T04:28:36.235Z,54.88
2019-06-10T04:31:03.304Z,54.92
2019-06-10T04:33:30.064Z,54.86
2019-06-10T04:35:56.859Z,54.79
2019-06-10T04:38:26.029Z,54.85
2019-06-10T04:40:52.615Z,54.88
2019-06-10T04:43:20.415Z,54.95
2019-06-10T04:45:47.833Z,54.89
2019-06-10T04:48:14.606Z,54.89
2019-06-10T04:50:45.987Z,54.88
2019-06-10T04:53:10.198Z,54.88
2019-06-10T04:55:36.974Z,54.84
2019-06-10T04:58:03.741Z,54.91
2019-06-10T05:00:33.050Z,54.90
2019-06-10T05:02:59.054Z,54.91
2019-06-10T05:05:27.287Z,54.95
2019-06-10T05:07:54.458Z,54.87
2019-06-10T05:10:23.673Z,54.95
2019-06-10T05:12:49.758Z,54.95
2019-06-10T05:15:16.577Z,54.91
2019-06-10T05:17:43.939Z,54.94
2019-06-10T05:20:12.543Z,54.87
2019-06-10T05:22:39.318Z,54.95
2019-06-10T05:25:06.142Z,54.90
2019-06-10T05:27:33.201Z,54.86
2019-06-10T05:30:02.298Z,54.86
2019-06-10T05:32:29.035Z,54.94
2019-06-10T05:34:55.916Z,54.90
2019-06-10T05:37:23.756Z,54.92
2019-06-10T05:39:52.678Z,54.89
2019-06-10T05:42:19.713Z,54.89
2019-06-10T05:44:46.544Z,54.89
2019-06-10T05:47:13.318Z,54.90
2019-06-10T05:49:40.103Z,54.91
2019-06-10T05:52:06.889Z,54.86
2019-06-10T05:54:35.327Z,54.84
2019-06-10T05:57:02.639Z,54.94
2019-06-10T05:59:29.487Z,54.92
2019-06-10T06:01:56.307Z,54.94
2019-06-10T06:04:24.618Z,54.87
2019-06-10T06:06:53.152Z,54.92
2019-06-10T06:09:22.072Z,54.89
2019-06-10T06:11:48.633Z,54.90
2019-06-10T06:14:15.434Z,54.90
2019-06-10T06:16:43.324Z,54.96
2019-06-10T06:19:12.438Z,54.92
2019-06-10T06:21:42.789Z,54.97
2019-06-10T06:24:07.454Z,54.99
2019-06-10T06:26:37.930Z,54.95
2019-06-10T06:29:02.752Z,54.95
2019-06-10T06:31:30.780Z,54.94
2019-06-10T06:33:58.006Z,54.96
2019-06-10T06:36:24.799Z,54.96
2019-06-10T06:38:53.106Z,55.03
2019-06-10T06:41:22.431Z,55.07
2019-06-10T06:43:48.660Z,54.82
2019-06-10T06:46:15.466Z,54.92
2019-06-10T06:48:43.796Z,55.50
2019-06-10T06:51:13.058Z,55.86
2019-06-10T06:53:45.439Z,56.20
2019-06-10T06:56:07.949Z,55.16
2019-06-10T06:58:36.678Z,57.38
2019-06-10T07:01:10.243Z,57.55
2019-06-10T07:03:34.556Z,57.98
2019-06-10T07:06:02.643Z,57.88
2019-06-10T07:08:30.257Z,58.05
2019-06-10T07:10:57.647Z,61.21
2019-06-10T07:13:24.426Z,63.53
2019-06-10T07:15:53.446Z,64.60
2019-06-10T07:18:19.735Z,65.01
2019-06-10T07:20:46.531Z,63.27
2019-06-10T07:23:13.370Z,62.96
2019-06-10T07:25:42.262Z,63.30
2019-06-10T07:28:08.689Z,63.32
2019-06-10T07:30:38.818Z,64.30
2019-06-10T07:33:03.949Z,64.93
2019-06-10T07:35:33.025Z,66.18
2019-06-10T07:37:59.265Z,65.68
2019-06-10T07:40:26.047Z,66.44
2019-06-10T07:42:53.144Z,66.78
2019-06-10T07:45:22.027Z,67.19
2019-06-10T07:47:48.594Z,66.52
2019-06-10T07:50:15.360Z,66.37
2019-06-10T07:52:45.039Z,66.67
2019-06-10T07:55:12.715Z,66.85
2019-06-10T07:57:39.383Z,67.86
2019-06-10T08:00:06.360Z,67.34
2019-06-10T08:02:34.083Z,66.91
2019-06-10T08:05:03.523Z,68.17
2019-06-10T08:07:29.622Z,66.34
2019-06-10T08:09:56.405Z,66.93
2019-06-10T08:12:23.416Z,66.69
2019-06-10T08:14:53.020Z,64.29
2019-06-10T08:17:18.850Z,62.61
2019-06-10T08:19:49.533Z,62.08
2019-06-10T08:22:29.789Z,61.70
2019-06-10T08:24:45.208Z,61.76
2019-06-10T08:27:12.072Z,61.33
2019-06-10T08:29:39.114Z,61.37
2019-06-10T08:32:05.910Z,60.81
2019-06-10T08:34:33.068Z,60.80
2019-06-10T08:37:04.097Z,60.72
2019-06-10T08:39:28.475Z,60.49
2019-06-10T08:41:55.253Z,60.29
2019-06-10T08:44:23.010Z,60.25
2019-06-10T08:46:52.303Z,60.23
2019-06-10T08:49:18.630Z,60.07
2019-06-10T08:51:48.321Z,59.77
2019-06-10T08:54:14.176Z,59.75
2019-06-10T08:56:45.160Z,59.50
2019-06-10T08:59:09.521Z,59.34
2019-06-10T09:01:37.730Z,59.13
2019-06-10T09:04:04.835Z,59.12
2019-06-10T09:06:32.947Z,59.01
2019-06-10T09:08:59.928Z,58.92
2019-06-10T09:11:26.734Z,58.98
2019-06-10T09:13:53.514Z,58.80
2019-06-10T09:16:22.645Z,58.87
2019-06-10T09:18:51.117Z,58.82
2019-06-10T09:21:17.426Z,58.64
2019-06-10T09:23:49.263Z,58.73
2019-06-10T09:26:12.881Z,58.77
2019-06-10T09:28:41.504Z,58.95
2019-06-10T09:31:08.441Z,58.93
2019-06-10T09:33:35.435Z,58.76
2019-06-10T09:36:03.303Z,58.79
2019-06-10T09:38:33.471Z,58.73
2019-06-10T09:41:04.884Z,58.81
2019-06-10T09:43:28.580Z,58.76
2019-06-10T09:45:56.774Z,58.77
2019-06-10T09:48:24.170Z,58.80
2019-06-10T09:50:57.504Z,58.77
2019-06-10T09:53:30.182Z,58.81
2019-06-10T09:55:50.684Z,58.76
2019-06-10T09:58:17.082Z,59.03
2019-06-10T10:00:47.288Z,58.97
2019-06-10T10:03:12.577Z,58.99
2019-06-10T10:05:43.228Z,59.02
2019-06-10T10:08:08.138Z,59.47
2019-06-10T10:10:35.241Z,59.12
2019-06-10T10:13:02.699Z,59.25
2019-06-10T10:15:31.632Z,59.15
2019-06-10T10:17:58.678Z,59.09
2019-06-10T10:20:25.596Z,59.02
2019-06-10T10:22:55.129Z,59.05
2019-06-10T10:25:23.412Z,58.94
2019-06-10T10:27:53.159Z,58.92
2019-06-10T10:30:18.561Z,58.95
2019-06-10T10:32:47.617Z,58.80
2019-06-10T10:35:14.348Z,58.71
2019-06-10T10:37:42.399Z,58.71
2019-06-10T10:40:09.246Z,58.70
2019-06-10T10:42:45.487Z,58.62
2019-06-10T10:45:04.843Z,58.55
2019-06-10T10:47:33.503Z,58.61
2019-06-10T10:50:02.778Z,58.62
2019-06-10T10:52:28.920Z,58.53
2019-06-10T10:54:55.780Z,58.47
2019-06-10T10:57:23.229Z,58.44
2019-06-10T10:59:52.465Z,58.39
2019-06-10T11:02:18.631Z,58.43
2019-06-10T11:04:46.220Z,58.48
2019-06-10T11:07:14.234Z,58.43
2019-06-10T11:09:42.395Z,58.39
2019-06-10T11:12:09.722Z,58.32
2019-06-10T11:14:36.512Z,58.30
2019-06-10T11:17:03.328Z,58.24
2019-06-10T11:19:32.138Z,58.17
2019-06-10T11:21:58.617Z,58.10
2019-06-10T11:24:36.785Z,58.10
2019-06-10T11:26:56.493Z,58.10
2019-06-10T11:29:22.419Z,58.08
2019-06-10T11:31:50.463Z,58.12
2019-06-10T11:34:19.879Z,58.06
2019-06-10T11:36:47.874Z,58.05
2019-06-10T11:39:14.798Z,58.00
2019-06-10T11:41:43.621Z,57.98
2019-06-10T11:44:10.071Z,57.98
2019-06-10T11:46:36.855Z,57.93
2019-06-10T11:49:04.066Z,57.91
2019-06-10T11:51:30.911Z,57.87
2019-06-10T11:53:58.924Z,57.83
2019-06-10T11:56:25.920Z,57.84
2019-06-10T11:58:54.950Z,57.81
2019-06-10T12:01:22.927Z,57.80
2019-06-10T12:03:51.158Z,57.75
2019-06-10T12:06:18.450Z,57.73
2019-06-10T12:08:45.264Z,57.78
2019-06-10T12:11:12.662Z,57.73
2019-06-10T12:13:42.512Z,57.70
2019-06-10T12:18:36.810Z,57.72
2019-06-10T12:21:04.029Z,57.72
2019-06-10T12:23:33.616Z,57.76
2019-06-10T12:26:00.882Z,57.46
2019-06-10T12:28:27.895Z,57.96
2019-06-10T12:30:59.242Z,57.96
2019-06-10T12:33:25.405Z,57.90
2019-06-10T12:35:54.376Z,57.83
2019-06-10T12:38:22.497Z,57.83
2019-06-10T12:40:48.698Z,57.80
2019-06-10T12:43:15.474Z,57.84
2019-06-10T12:45:43.306Z,57.82
2019-06-10T12:48:13.164Z,57.82
2019-06-10T12:50:39.558Z,57.79
2019-06-10T12:53:07.320Z,57.82
2019-06-10T12:55:42.323Z,57.85
2019-06-10T12:58:05.433Z,57.80
2019-06-10T13:00:33.249Z,57.18
2019-06-10T13:03:02.558Z,58.11
2019-06-10T13:05:28.651Z,58.07
2019-06-10T13:07:55.540Z,58.07
2019-06-10T13:10:22.625Z,58.03
2019-06-10T13:12:52.353Z,58.01
2019-06-10T13:15:18.007Z,57.97
2019-06-10T13:17:44.782Z,57.94
2019-06-10T13:20:13.627Z,57.87
2019-06-10T13:22:40.114Z,57.87
2019-06-10T13:25:07.021Z,57.83
2019-06-10T13:27:33.862Z,57.82
2019-06-10T13:30:01.411Z,57.81
2019-06-10T13:32:29.356Z,57.75
2019-06-10T13:34:56.463Z,57.76
2019-06-10T13:37:23.292Z,57.74
2019-06-10T13:39:52.324Z,57.78
2019-06-10T13:42:18.575Z,57.73
2019-06-10T13:44:45.369Z,57.65
2019-06-10T13:47:14.825Z,57.74
2019-06-10T13:49:42.816Z,57.67
2019-06-10T13:52:14.026Z,57.70
2019-06-10T13:54:37.902Z,57.65
2019-06-10T13:57:06.869Z,57.61
2019-06-10T13:59:33.303Z,57.61
2019-06-10T14:02:02.712Z,57.60
2019-06-10T14:04:28.635Z,57.60
2019-06-10T14:06:57.238Z,57.56
2019-06-10T14:09:24.332Z,57.57
2019-06-10T14:11:51.346Z,57.53
2019-06-10T14:14:18.396Z,57.55
2019-06-10T14:16:45.303Z,57.54
2019-06-10T14:19:15.995Z,57.49
2019-06-10T14:21:42.539Z,57.49
2019-06-10T14:24:10.368Z,57.52
2019-06-10T14:26:42.266Z,57.47
2019-06-10T14:29:07.380Z,57.49
2019-06-10T14:31:43.437Z,57.44
2019-06-10T14:34:05.334Z,57.47
2019-06-10T14:36:32.522Z,57.45
2019-06-10T14:38:59.514Z,57.49
2019-06-10T14:41:26.310Z,57.44
2019-06-10T14:43:53.221Z,57.51
2019-06-10T14:46:22.919Z,57.66
2019-06-10T14:48:49.290Z,57.66
2019-06-10T14:51:17.179Z,58.15
2019-06-10T14:53:44.132Z,57.78
2019-06-10T14:56:14.900Z,57.76
2019-06-10T14:58:39.443Z,57.84
2019-06-10T15:01:07.563Z,57.78
2019-06-10T15:03:34.834Z,57.83
2019-06-10T15:06:03.170Z,57.85
2019-06-10T15:08:32.224Z,57.83
2019-06-10T15:10:58.806Z,57.87
2019-06-10T15:13:25.583Z,57.81
2019-06-10T15:15:53.177Z,57.81
2019-06-10T15:18:23.178Z,57.78
2019-06-10T15:20:49.029Z,57.76
2019-06-10T15:23:18.666Z,57.64
2019-06-10T15:25:52.527Z,57.61
2019-06-10T15:28:15.899Z,57.52
2019-06-10T15:30:43.190Z,57.55
2019-06-10T15:33:11.161Z,57.50
2019-06-10T15:35:38.734Z,57.50
2019-06-10T15:38:05.548Z,57.43
2019-06-10T15:40:32.549Z,57.40
2019-06-10T15:42:59.372Z,57.36
2019-06-10T15:45:26.167Z,57.42
2019-06-10T15:47:53.201Z,57.36
2019-06-10T15:50:21.171Z,57.31
2019-06-10T15:52:48.704Z,57.28
2019-06-10T15:55:40.658Z,57.20
2019-06-10T15:57:46.553Z,57.28
2019-06-10T16:00:18.588Z,57.18
2019-06-10T16:02:41.045Z,57.32
2019-06-10T16:05:07.808Z,57.34
2019-06-10T16:07:34.575Z,57.23
2019-06-10T16:10:02.856Z,57.25
2019-06-10T16:12:29.834Z,57.27
2019-06-10T16:14:56.601Z,57.20
2019-06-10T16:17:23.410Z,57.18
2019-06-10T16:19:52.830Z,57.10
2019-06-10T16:22:19.600Z,57.13
2019-06-10T16:24:46.523Z,57.13
2019-06-10T16:27:14.213Z,57.10
2019-06-10T16:29:42.416Z,57.58
2019-06-10T16:32:09.385Z,57.43
2019-06-10T16:34:36.184Z,57.22
2019-06-10T16:37:03.258Z,57.27
2019-06-10T16:39:32.432Z,57.29
2019-06-10T16:41:58.637Z,57.40
2019-06-10T16:44:27.817Z,57.50
2019-06-10T16:46:53.911Z,57.38
2019-06-10T16:49:21.419Z,57.45
2019-06-10T16:51:48.252Z,57.47
2019-06-10T16:54:15.032Z,57.72
2019-06-10T16:56:43.476Z,57.33
2019-06-10T16:59:12.282Z,57.30
2019-06-10T17:01:39.152Z,57.43
2019-06-10T17:04:05.916Z,57.43
2019-06-10T17:06:32.822Z,57.40
2019-06-10T17:08:59.667Z,57.59
2019-06-10T17:11:28.745Z,57.52
2019-06-10T17:13:54.954Z,57.57
2019-06-10T17:16:23.268Z,57.52
2019-06-10T17:18:50.254Z,57.56
2019-06-10T17:21:17.032Z,57.54
2019-06-10T17:23:43.832Z,57.51
2019-06-10T17:26:10.636Z,57.50
2019-06-10T17:28:37.404Z,57.53
2019-06-10T17:31:04.213Z,57.62
2019-06-10T17:33:35.117Z,57.57
2019-06-10T17:35:59.551Z,57.61
2019-06-10T17:38:26.937Z,57.48
2019-06-10T17:40:53.932Z,57.50
2019-06-10T17:43:20.976Z,57.51
2019-06-10T17:45:47.876Z,57.46
2019-06-10T17:48:14.657Z,57.54
2019-06-10T17:50:42.893Z,57.54
2019-06-10T17:53:09.900Z,57.57
2019-06-10T17:55:36.694Z,57.60
2019-06-10T17:58:03.840Z,57.67
2019-06-10T18:00:31.671Z,57.59
2019-06-10T18:02:59.197Z,57.50
2019-06-10T18:05:27.162Z,57.58
2019-06-10T18:07:54.053Z,57.59
2019-06-10T18:10:22.491Z,57.67
2019-06-10T18:12:49.349Z,57.59
2019-06-10T18:15:16.140Z,57.55
2019-06-10T18:17:42.918Z,57.57
2019-06-10T18:20:09.702Z,57.53
2019-06-10T18:22:37.122Z,57.60
2019-06-10T18:25:04.337Z,57.61
2019-06-10T18:27:33.670Z,57.62
2019-06-10T18:30:02.296Z,57.54
2019-06-10T18:32:28.163Z,57.57
2019-06-10T18:34:54.935Z,57.60
2019-06-10T18:37:22.773Z,58.13
2019-06-10T18:39:52.120Z,60.58
2019-06-10T18:42:18.204Z,62.96
2019-06-10T18:44:44.986Z,63.45
2019-06-10T18:47:13.432Z,63.46
2019-06-10T18:49:42.729Z,62.38
2019-06-10T18:52:08.926Z,62.33
2019-06-10T18:54:37.223Z,61.85
2019-06-10T18:57:04.307Z,61.67
2019-06-10T18:59:33.165Z,61.52
2019-06-10T19:02:02.673Z,61.23
2019-06-10T19:04:28.450Z,61.01
2019-06-10T19:06:55.445Z,60.92
2019-06-10T19:09:22.248Z,60.72
2019-06-10T19:11:49.090Z,60.58
2019-06-10T19:14:15.866Z,60.59
2019-06-10T19:16:43.063Z,60.49
2019-06-10T19:19:12.508Z,60.57
2019-06-10T19:21:38.592Z,60.36
2019-06-10T19:24:05.450Z,60.39
2019-06-10T19:26:33.975Z,60.44
2019-06-10T19:29:00.789Z,60.25
2019-06-10T19:31:29.490Z,60.38
2019-06-10T19:33:56.584Z,60.28
2019-06-10T19:36:23.406Z,60.28
2019-06-10T19:38:50.227Z,60.30
2019-06-10T19:41:17.087Z,60.13
2019-06-10T19:43:45.444Z,60.14
2019-06-10T19:46:12.876Z,60.11
2019-06-10T19:48:43.368Z,60.14
2019-06-10T19:51:08.234Z,60.13
2019-06-10T19:53:36.047Z,60.13
2019-06-10T19:56:03.574Z,60.03
2019-06-10T19:58:32.347Z,59.97
2019-06-10T20:00:58.933Z,60.04
2019-06-10T20:03:25.736Z,60.11
2019-06-10T20:05:53.012Z,60.15
2019-06-10T20:08:19.848Z,60.06
2019-06-10T20:10:46.629Z,59.97
2019-06-10T20:13:13.430Z,59.87
2019-06-10T20:15:41.485Z,60.00
2019-06-10T20:18:08.980Z,60.00
2019-06-10T20:20:36.085Z,60.02
2019-06-10T20:23:03.291Z,60.12
2019-06-10T20:25:30.205Z,60.22
2019-06-10T20:27:57.008Z,60.12
2019-06-10T20:30:28.734Z,59.80
2019-06-10T20:32:55.978Z,59.98
2019-06-10T20:35:23.140Z,60.21
2019-06-10T20:37:49.955Z,60.29
2019-06-10T20:40:16.758Z,60.00
2019-06-10T20:42:44.423Z,60.15
2019-06-10T20:45:13.162Z,60.06
2019-06-10T20:47:43.077Z,60.10
2019-06-10T20:50:08.794Z,60.08
2019-06-10T20:52:35.630Z,59.96
2019-06-10T20:55:02.995Z,59.94
2019-06-10T20:57:30.131Z,59.89
2019-06-10T20:59:56.930Z,59.86
2019-06-10T21:02:23.807Z,59.82
2019-06-10T21:04:53.049Z,59.86
2019-06-10T21:07:19.125Z,59.83
2019-06-10T21:09:47.181Z,59.77
2019-06-10T21:12:14.593Z,59.70
2019-06-10T21:14:42.748Z,59.83
2019-06-10T21:17:12.099Z,59.83
2019-06-10T21:19:38.571Z,59.91
2019-06-10T21:22:05.366Z,59.75
2019-06-10T21:24:32.434Z,59.75
2019-06-10T21:26:59.666Z,59.57
2019-06-10T21:29:26.446Z,59.53
2019-06-10T21:31:54.775Z,59.54
2019-06-10T21:34:22.430Z,59.67
2019-06-10T21:36:49.472Z,59.58
2019-06-10T21:39:16.276Z,59.55
2019-06-10T21:41:45.188Z,59.54
2019-06-10T21:44:13.184Z,59.54
2019-06-10T21:46:40.020Z,59.45
2019-06-10T21:49:06.811Z,59.49
2019-06-10T21:51:34.637Z,59.50
2019-06-10T21:54:02.987Z,59.50
2019-06-10T21:56:32.634Z,59.45
2019-06-10T21:58:58.512Z,59.48
2019-06-10T22:01:25.385Z,59.47
2019-06-10T22:03:59.928Z,59.39
2019-06-10T22:06:22.817Z,59.46
2019-06-10T22:08:50.077Z,59.38
2019-06-10T22:11:17.622Z,59.49
2019-06-10T22:13:44.401Z,59.44
2019-06-10T22:16:11.301Z,59.40
2019-06-10T22:18:39.184Z,59.46
2019-06-10T22:21:06.014Z,59.37
2019-06-10T22:23:33.169Z,59.41
2019-06-10T22:26:02.584Z,59.34
2019-06-10T22:28:28.704Z,59.40
2019-06-10T22:31:14.663Z,59.49
2019-06-10T22:33:24.100Z,59.32
2019-06-10T22:35:54.546Z,59.32
2019-06-10T22:38:19.486Z,59.46
2019-06-10T22:40:46.854Z,59.49
2019-06-10T22:43:13.889Z,59.22
2019-06-10T22:45:42.366Z,59.35
2019-06-10T22:48:09.217Z,59.49
2019-06-10T22:50:36.025Z,59.24
2019-06-10T22:53:03.886Z,59.35
2019-06-10T22:55:32.148Z,59.26
2019-06-10T22:58:02.106Z,59.23
2019-06-10T23:00:27.786Z,59.44
2019-06-10T23:02:56.218Z,59.32
2019-06-10T23:05:23.511Z,59.42
2019-06-10T23:07:52.816Z,59.27
2019-06-10T23:10:18.915Z,59.16
2019-06-10T23:12:45.729Z,59.24
2019-06-10T23:15:13.051Z,59.29
2019-06-10T23:17:42.187Z,59.32
2019-06-10T23:20:08.464Z,59.14
2019-06-10T23:22:35.244Z,59.16
2019-06-10T23:25:02.795Z,59.25
2019-06-10T23:27:30.034Z,59.24
2019-06-10T23:29:57.569Z,59.16
2019-06-10T23:32:25.616Z,59.24
2019-06-10T23:34:54.703Z,59.17
2019-06-10T23:37:22.952Z,59.43
2019-06-10T23:39:50.611Z,59.21
2019-06-10T23:42:17.547Z,59.24
2019-06-10T23:44:44.383Z,59.40
2019-06-10T23:47:12.760Z,59.18
2019-06-10T23:49:39.625Z,59.33
2019-06-10T23:52:06.467Z,59.23
2019-06-10T23:54:33.413Z,59.16
2019-06-10T23:57:01.433Z,59.14
2019-06-10T23:59:28.828Z,59.21
